Hlavní strana
METAR-TAF:

METAR-TAF

Letiště :

Kuusamo, Finsko

zeměpisná šířka: 65-58N, zeměpisná délka: 029-11E, výška: 262 m

Aktuální stav počasí

Zpráva byla vytvořena před 30 minutami, v 09:20 UTC
Severoseverozápadní vítr 18 kt s nárazy do 28 kt
Teplota -4°C
Vlhkost vzduchu 63%
Tlak 1001 hPa
Viditelnost 10 km a více
Oblačno až skoro zataženo ve výšce 2700 ft
slabé sněhové přeháňky

METAR: EFKS 170920Z 33018G28KT 9999 -SHSN BKN027 M04/M10 Q1001

Čas: 11:50 (09:50 UTC)

Předpověď počasí

Zpráva byla vytvořena před 1 hodinou a 27 minutami, v 08:23 UTC
Předpověď platná od 17 v 09 UTC do 17 v 18 UTC
Severozápadní vítr 19 kt
Viditelnost 10 km a více
Oblačno až skoro zataženo ve výšce 2500 ft
Dočasný
od 17 v 09 UTC do 17 v 12 UTC
Severoseverozápadní vítr 20 kt s nárazy do 32 kt

TAF: EFKS 170823Z 1709/1718 31019KT 9999 BKN025 TEMPO 1709/1712 33020G32KT

Stav a předpovědi počasí z více než 4 000 letišť (zprávy METAR a TAF).

Červené a žluté tečky na mapě představují dostupné meteorologické stanice.

Když kurzor umístíte na tečku, zobrazí se název stanice.

Pak kliknutím zobrazíte stav a předpověď počasí.

Chcete-li změnit mapu, kliknutím na zelené tlačítko se znaménkem +mapu přiblížíte, kliknutím na zelené tlačítko se znaménkem – mapu oddálíte a kliknutím na zelené šipky přejdete na sousední mapy.


METAR-TAF: